sensor_id;sensor_type;location;lat;lon;timestamp;P1;durP1;ratioP1;P2;durP2;ratioP2
7029;SDS011;3556;53.500;10.176;2023-02-03T00:01:30;3.67;;;3.43;;
7029;SDS011;3556;53.500;10.176;2023-02-03T00:03:56;3.70;;;3.47;;
7029;SDS011;3556;53.500;10.176;2023-02-03T00:06:21;5.90;;;3.53;;
7029;SDS011;3556;53.500;10.176;2023-02-03T00:08:47;5.57;;;3.90;;
7029;SDS011;3556;53.500;10.176;2023-02-03T00:11:13;3.70;;;3.40;;
7029;SDS011;3556;53.500;10.176;2023-02-03T00:13:39;3.60;;;3.40;;
7029;SDS011;3556;53.500;10.176;2023-02-03T00:16:04;6.30;;;4.00;;
7029;SDS011;3556;53.500;10.176;2023-02-03T00:18:31;4.10;;;3.80;;
7029;SDS011;3556;53.500;10.176;2023-02-03T00:20:57;3.90;;;3.70;;
7029;SDS011;3556;53.500;10.176;2023-02-03T00:23:23;4.70;;;4.00;;
7029;SDS011;3556;53.500;10.176;2023-02-03T00:25:50;3.83;;;3.43;;
7029;SDS011;3556;53.500;10.176;2023-02-03T00:28:16;4.17;;;3.97;;
7029;SDS011;3556;53.500;10.176;2023-02-03T00:30:41;4.27;;;4.10;;
7029;SDS011;3556;53.500;10.176;2023-02-03T00:33:07;4.17;;;4.00;;
7029;SDS011;3556;53.500;10.176;2023-02-03T00:35:36;4.57;;;4.37;;
7029;SDS011;3556;53.500;10.176;2023-02-03T00:38:02;6.47;;;5.80;;
7029;SDS011;3556;53.500;10.176;2023-02-03T00:40:28;7.33;;;6.73;;
7029;SDS011;3556;53.500;10.176;2023-02-03T00:42:54;6.70;;;6.20;;
7029;SDS011;3556;53.500;10.176;2023-02-03T00:45:19;7.50;;;6.80;;
7029;SDS011;3556;53.500;10.176;2023-02-03T00:47:45;8.53;;;7.63;;
7029;SDS011;3556;53.500;10.176;2023-02-03T00:50:10;10.10;;;7.57;;
7029;SDS011;3556;53.500;10.176;2023-02-03T00:52:36;10.43;;;8.53;;
7029;SDS011;3556;53.500;10.176;2023-02-03T00:55:02;11.43;;;8.30;;
7029;SDS011;3556;53.500;10.176;2023-02-03T00:57:28;10.40;;;8.80;;
7029;SDS011;3556;53.500;10.176;2023-02-03T00:59:54;12.27;;;8.90;;
7029;SDS011;3556;53.500;10.176;2023-02-03T01:02:20;10.77;;;9.40;;
7029;SDS011;3556;53.500;10.176;2023-02-03T01:04:45;16.13;;;10.23;;
7029;SDS011;3556;53.500;10.176;2023-02-03T01:07:12;18.63;;;11.10;;
7029;SDS011;3556;53.500;10.176;2023-02-03T01:09:38;21.23;;;11.97;;
7029;SDS011;3556;53.500;10.176;2023-02-03T01:12:03;24.33;;;12.23;;
7029;SDS011;3556;53.500;10.176;2023-02-03T01:14:30;18.13;;;11.60;;
7029;SDS011;3556;53.500;10.176;2023-02-03T01:16:55;20.60;;;12.53;;
7029;SDS011;3556;53.500;10.176;2023-02-03T01:19:21;23.10;;;12.70;;
7029;SDS011;3556;53.500;10.176;2023-02-03T01:21:47;28.60;;;12.30;;
7029;SDS011;3556;53.500;10.176;2023-02-03T01:24:13;22.50;;;12.20;;
7029;SDS011;3556;53.500;10.176;2023-02-03T01:26:41;26.20;;;12.70;;
7029;SDS011;3556;53.500;10.176;2023-02-03T01:29:08;21.83;;;13.33;;
7029;SDS011;3556;53.500;10.176;2023-02-03T01:31:34;23.37;;;11.93;;
7029;SDS011;3556;53.500;10.176;2023-02-03T01:34:04;16.00;;;10.17;;
7029;SDS011;3556;53.500;10.176;2023-02-03T01:36:32;22.07;;;12.50;;
7029;SDS011;3556;53.500;10.176;2023-02-03T01:38:59;19.63;;;10.63;;
7029;SDS011;3556;53.500;10.176;2023-02-03T01:41:25;24.33;;;12.37;;
7029;SDS011;3556;53.500;10.176;2023-02-03T01:43:57;17.60;;;11.43;;
7029;SDS011;3556;53.500;10.176;2023-02-03T01:46:37;19.27;;;11.60;;
7029;SDS011;3556;53.500;10.176;2023-02-03T01:51:53;21.30;;;10.10;;
7029;SDS011;3556;53.500;10.176;2023-02-03T01:54:21;15.17;;;10.50;;
7029;SDS011;3556;53.500;10.176;2023-02-03T01:56:53;21.53;;;11.20;;
7029;SDS011;3556;53.500;10.176;2023-02-03T01:59:25;16.97;;;9.97;;
7029;SDS011;3556;53.500;10.176;2023-02-03T02:01:53;23.17;;;12.13;;
7029;SDS011;3556;53.500;10.176;2023-02-03T02:04:21;18.90;;;11.00;;
7029;SDS011;3556;53.500;10.176;2023-02-03T02:06:49;20.73;;;10.97;;
7029;SDS011;3556;53.500;10.176;2023-02-03T02:09:15;16.30;;;9.60;;
7029;SDS011;3556;53.500;10.176;2023-02-03T02:11:41;23.63;;;11.57;;
7029;SDS011;3556;53.500;10.176;2023-02-03T02:14:08;12.77;;;9.73;;
7029;SDS011;3556;53.500;10.176;2023-02-03T02:16:43;23.63;;;10.50;;
7029;SDS011;3556;53.500;10.176;2023-02-03T02:24:41;21.23;;;10.20;;
7029;SDS011;3556;53.500;10.176;2023-02-03T02:33:09;17.40;;;9.37;;
7029;SDS011;3556;53.500;10.176;2023-02-03T02:35:50;18.77;;;10.33;;
7029;SDS011;3556;53.500;10.176;2023-02-03T02:41:35;20.00;;;8.60;;
7029;SDS011;3556;53.500;10.176;2023-02-03T02:44:08;18.03;;;9.43;;
7029;SDS011;3556;53.500;10.176;2023-02-03T02:46:40;14.40;;;9.30;;
7029;SDS011;3556;53.500;10.176;2023-02-03T02:49:19;14.00;;;9.33;;
7029;SDS011;3556;53.500;10.176;2023-02-03T02:52:04;15.47;;;8.80;;
7029;SDS011;3556;53.500;10.176;2023-02-03T02:54:32;16.47;;;9.13;;
7029;SDS011;3556;53.500;10.176;2023-02-03T02:57:03;10.07;;;8.70;;
7029;SDS011;3556;53.500;10.176;2023-02-03T02:59:30;12.03;;;8.60;;
7029;SDS011;3556;53.500;10.176;2023-02-03T03:01:56;12.17;;;8.77;;
7029;SDS011;3556;53.500;10.176;2023-02-03T03:04:25;20.63;;;8.90;;
7029;SDS011;3556;53.500;10.176;2023-02-03T03:06:56;16.53;;;8.30;;
7029;SDS011;3556;53.500;10.176;2023-02-03T03:12:06;19.30;;;7.60;;
7029;SDS011;3556;53.500;10.176;2023-02-03T03:14:38;9.20;;;7.20;;
7029;SDS011;3556;53.500;10.176;2023-02-03T03:17:09;9.17;;;6.20;;
7029;SDS011;3556;53.500;10.176;2023-02-03T03:19:38;11.90;;;6.87;;
7029;SDS011;3556;53.500;10.176;2023-02-03T03:22:10;8.57;;;6.53;;
7029;SDS011;3556;53.500;10.176;2023-02-03T03:24:40;11.03;;;6.77;;
7029;SDS011;3556;53.500;10.176;2023-02-03T03:27:17;13.00;;;6.00;;
7029;SDS011;3556;53.500;10.176;2023-02-03T03:32:15;12.50;;;6.57;;
7029;SDS011;3556;53.500;10.176;2023-02-03T03:34:40;13.97;;;6.30;;
7029;SDS011;3556;53.500;10.176;2023-02-03T03:37:10;6.33;;;5.10;;
7029;SDS011;3556;53.500;10.176;2023-02-03T03:39:50;17.10;;;5.83;;
7029;SDS011;3556;53.500;10.176;2023-02-03T03:42:39;10.07;;;5.07;;
7029;SDS011;3556;53.500;10.176;2023-02-03T03:45:16;9.87;;;5.10;;
7029;SDS011;3556;53.500;10.176;2023-02-03T03:50:29;10.23;;;5.00;;
7029;SDS011;3556;53.500;10.176;2023-02-03T03:52:59;14.73;;;5.40;;
7029;SDS011;3556;53.500;10.176;2023-02-03T03:55:28;9.53;;;5.10;;
7029;SDS011;3556;53.500;10.176;2023-02-03T03:58:04;10.87;;;5.37;;
7029;SDS011;3556;53.500;10.176;2023-02-03T04:00:37;4.43;;;3.90;;
7029;SDS011;3556;53.500;10.176;2023-02-03T04:03:06;7.80;;;4.30;;
7029;SDS011;3556;53.500;10.176;2023-02-03T04:05:37;7.27;;;5.50;;
7029;SDS011;3556;53.500;10.176;2023-02-03T04:08:04;18.83;;;5.50;;
7029;SDS011;3556;53.500;10.176;2023-02-03T04:10:35;7.00;;;4.53;;
7029;SDS011;3556;53.500;10.176;2023-02-03T04:13:02;14.87;;;5.17;;
7029;SDS011;3556;53.500;10.176;2023-02-03T04:15:29;8.00;;;5.17;;
7029;SDS011;3556;53.500;10.176;2023-02-03T04:17:55;8.30;;;5.03;;
7029;SDS011;3556;53.500;10.176;2023-02-03T04:20:21;5.70;;;5.20;;
7029;SDS011;3556;53.500;10.176;2023-02-03T04:22:48;14.90;;;6.53;;
7029;SDS011;3556;53.500;10.176;2023-02-03T04:25:14;7.87;;;5.80;;
7029;SDS011;3556;53.500;10.176;2023-02-03T04:27:40;11.90;;;4.63;;
7029;SDS011;3556;53.500;10.176;2023-02-03T04:30:06;5.57;;;5.07;;
7029;SDS011;3556;53.500;10.176;2023-02-03T04:32:32;11.83;;;4.67;;
7029;SDS011;3556;53.500;10.176;2023-02-03T04:34:59;4.70;;;4.10;;
7029;SDS011;3556;53.500;10.176;2023-02-03T04:37:25;7.80;;;4.70;;
7029;SDS011;3556;53.500;10.176;2023-02-03T04:39:54;5.13;;;4.60;;
7029;SDS011;3556;53.500;10.176;2023-02-03T04:42:21;7.80;;;4.70;;
7029;SDS011;3556;53.500;10.176;2023-02-03T04:44:47;5.10;;;4.63;;
7029;SDS011;3556;53.500;10.176;2023-02-03T04:47:13;5.23;;;3.97;;
7029;SDS011;3556;53.500;10.176;2023-02-03T04:49:39;4.90;;;4.60;;
7029;SDS011;3556;53.500;10.176;2023-02-03T04:52:05;11.40;;;4.83;;
7029;SDS011;3556;53.500;10.176;2023-02-03T04:54:30;8.37;;;4.80;;
7029;SDS011;3556;53.500;10.176;2023-02-03T04:56:56;5.93;;;4.67;;
7029;SDS011;3556;53.500;10.176;2023-02-03T04:59:22;5.37;;;4.23;;
7029;SDS011;3556;53.500;10.176;2023-02-03T05:01:47;5.47;;;4.97;;
7029;SDS011;3556;53.500;10.176;2023-02-03T05:04:13;5.50;;;3.83;;
7029;SDS011;3556;53.500;10.176;2023-02-03T05:06:39;7.70;;;4.43;;
7029;SDS011;3556;53.500;10.176;2023-02-03T05:09:04;5.47;;;4.93;;
7029;SDS011;3556;53.500;10.176;2023-02-03T05:11:30;9.40;;;4.77;;
7029;SDS011;3556;53.500;10.176;2023-02-03T05:13:56;11.10;;;5.97;;
7029;SDS011;3556;53.500;10.176;2023-02-03T05:16:22;8.03;;;4.97;;
7029;SDS011;3556;53.500;10.176;2023-02-03T05:18:47;10.20;;;6.13;;
7029;SDS011;3556;53.500;10.176;2023-02-03T05:21:13;10.53;;;5.87;;
7029;SDS011;3556;53.500;10.176;2023-02-03T05:23:39;7.37;;;5.90;;
7029;SDS011;3556;53.500;10.176;2023-02-03T05:26:05;7.50;;;5.37;;
7029;SDS011;3556;53.500;10.176;2023-02-03T05:28:30;9.13;;;6.30;;
7029;SDS011;3556;53.500;10.176;2023-02-03T05:30:57;9.43;;;6.83;;
7029;SDS011;3556;53.500;10.176;2023-02-03T05:33:23;19.40;;;6.50;;
7029;SDS011;3556;53.500;10.176;2023-02-03T05:35:49;19.50;;;6.60;;
7029;SDS011;3556;53.500;10.176;2023-02-03T05:38:14;5.57;;;4.40;;
7029;SDS011;3556;53.500;10.176;2023-02-03T05:40:40;7.80;;;5.87;;
7029;SDS011;3556;53.500;10.176;2023-02-03T05:43:24;7.90;;;5.67;;
7029;SDS011;3556;53.500;10.176;2023-02-03T05:45:51;11.23;;;6.00;;
7029;SDS011;3556;53.500;10.176;2023-02-03T05:48:17;7.80;;;5.50;;
7029;SDS011;3556;53.500;10.176;2023-02-03T05:50:43;9.40;;;5.97;;
7029;SDS011;3556;53.500;10.176;2023-02-03T05:53:09;11.67;;;6.20;;
7029;SDS011;3556;53.500;10.176;2023-02-03T05:55:34;9.03;;;5.30;;
7029;SDS011;3556;53.500;10.176;2023-02-03T05:58:00;10.00;;;5.03;;
7029;SDS011;3556;53.500;10.176;2023-02-03T06:00:27;6.00;;;5.10;;
7029;SDS011;3556;53.500;10.176;2023-02-03T06:02:59;7.60;;;5.40;;
7029;SDS011;3556;53.500;10.176;2023-02-03T06:05:26;11.77;;;5.10;;
7029;SDS011;3556;53.500;10.176;2023-02-03T06:07:52;5.00;;;4.60;;
7029;SDS011;3556;53.500;10.176;2023-02-03T06:10:18;7.27;;;3.70;;
7029;SDS011;3556;53.500;10.176;2023-02-03T06:12:45;9.60;;;4.80;;
7029;SDS011;3556;53.500;10.176;2023-02-03T06:15:11;11.40;;;4.47;;
7029;SDS011;3556;53.500;10.176;2023-02-03T06:17:37;7.23;;;4.53;;
7029;SDS011;3556;53.500;10.176;2023-02-03T06:20:07;7.13;;;4.30;;
7029;SDS011;3556;53.500;10.176;2023-02-03T06:22:35;5.30;;;4.80;;
7029;SDS011;3556;53.500;10.176;2023-02-03T06:25:00;5.43;;;4.33;;
7029;SDS011;3556;53.500;10.176;2023-02-03T06:27:26;8.63;;;3.90;;
7029;SDS011;3556;53.500;10.176;2023-02-03T06:29:52;4.73;;;3.70;;
7029;SDS011;3556;53.500;10.176;2023-02-03T06:32:17;7.10;;;4.20;;
7029;SDS011;3556;53.500;10.176;2023-02-03T06:34:43;6.23;;;3.90;;
7029;SDS011;3556;53.500;10.176;2023-02-03T06:37:09;5.60;;;4.47;;
7029;SDS011;3556;53.500;10.176;2023-02-03T06:39:34;3.97;;;3.67;;
7029;SDS011;3556;53.500;10.176;2023-02-03T06:42:00;5.37;;;4.50;;
7029;SDS011;3556;53.500;10.176;2023-02-03T06:44:26;11.87;;;4.43;;
7029;SDS011;3556;53.500;10.176;2023-02-03T06:46:51;4.90;;;4.30;;
7029;SDS011;3556;53.500;10.176;2023-02-03T06:49:17;7.13;;;4.13;;
7029;SDS011;3556;53.500;10.176;2023-02-03T06:51:43;4.80;;;4.00;;
7029;SDS011;3556;53.500;10.176;2023-02-03T06:54:10;8.13;;;4.33;;
7029;SDS011;3556;53.500;10.176;2023-02-03T06:56:36;4.97;;;4.43;;
7029;SDS011;3556;53.500;10.176;2023-02-03T06:59:02;9.33;;;3.93;;
7029;SDS011;3556;53.500;10.176;2023-02-03T07:01:28;8.07;;;4.30;;
7029;SDS011;3556;53.500;10.176;2023-02-03T07:03:55;7.00;;;4.83;;
7029;SDS011;3556;53.500;10.176;2023-02-03T07:06:23;6.93;;;4.90;;
7029;SDS011;3556;53.500;10.176;2023-02-03T07:08:53;10.47;;;4.60;;
7029;SDS011;3556;53.500;10.176;2023-02-03T07:11:19;15.50;;;5.33;;
7029;SDS011;3556;53.500;10.176;2023-02-03T07:13:45;11.13;;;4.73;;
7029;SDS011;3556;53.500;10.176;2023-02-03T07:16:11;11.13;;;4.70;;
7029;SDS011;3556;53.500;10.176;2023-02-03T07:18:37;13.60;;;5.30;;
7029;SDS011;3556;53.500;10.176;2023-02-03T07:21:03;23.20;;;5.20;;
7029;SDS011;3556;53.500;10.176;2023-02-03T07:23:30;9.90;;;4.43;;
7029;SDS011;3556;53.500;10.176;2023-02-03T07:25:59;10.27;;;4.80;;
7029;SDS011;3556;53.500;10.176;2023-02-03T07:28:28;21.37;;;4.60;;
7029;SDS011;3556;53.500;10.176;2023-02-03T07:30:58;15.40;;;4.67;;
7029;SDS011;3556;53.500;10.176;2023-02-03T07:33:24;18.17;;;5.10;;
7029;SDS011;3556;53.500;10.176;2023-02-03T07:35:54;17.63;;;4.23;;
7029;SDS011;3556;53.500;10.176;2023-02-03T07:38:21;7.80;;;4.43;;
7029;SDS011;3556;53.500;10.176;2023-02-03T07:40:47;9.53;;;4.30;;
7029;SDS011;3556;53.500;10.176;2023-02-03T07:43:13;6.20;;;3.80;;
7029;SDS011;3556;53.500;10.176;2023-02-03T07:45:39;13.10;;;3.80;;
7029;SDS011;3556;53.500;10.176;2023-02-03T07:48:05;10.50;;;3.93;;
7029;SDS011;3556;53.500;10.176;2023-02-03T07:50:30;14.10;;;4.20;;
7029;SDS011;3556;53.500;10.176;2023-02-03T07:52:57;7.90;;;4.00;;
7029;SDS011;3556;53.500;10.176;2023-02-03T07:55:26;4.53;;;3.73;;
7029;SDS011;3556;53.500;10.176;2023-02-03T07:57:56;14.40;;;3.17;;
7029;SDS011;3556;53.500;10.176;2023-02-03T08:00:23;13.90;;;4.20;;
7029;SDS011;3556;53.500;10.176;2023-02-03T08:02:49;8.60;;;3.20;;
7029;SDS011;3556;53.500;10.176;2023-02-03T08:05:15;16.20;;;3.23;;
7029;SDS011;3556;53.500;10.176;2023-02-03T08:07:42;11.20;;;3.57;;
7029;SDS011;3556;53.500;10.176;2023-02-03T08:10:08;11.10;;;3.50;;
7029;SDS011;3556;53.500;10.176;2023-02-03T08:12:35;8.47;;;3.30;;
7029;SDS011;3556;53.500;10.176;2023-02-03T08:15:01;14.03;;;3.93;;
7029;SDS011;3556;53.500;10.176;2023-02-03T08:17:28;8.53;;;3.40;;
7029;SDS011;3556;53.500;10.176;2023-02-03T08:19:53;15.73;;;3.87;;
7029;SDS011;3556;53.500;10.176;2023-02-03T08:22:19;16.60;;;3.40;;
7029;SDS011;3556;53.500;10.176;2023-02-03T08:24:45;9.90;;;1.90;;
7029;SDS011;3556;53.500;10.176;2023-02-03T08:27:11;5.97;;;1.90;;
7029;SDS011;3556;53.500;10.176;2023-02-03T08:29:38;9.67;;;1.87;;
7029;SDS011;3556;53.500;10.176;2023-02-03T08:32:04;14.47;;;2.50;;
7029;SDS011;3556;53.500;10.176;2023-02-03T08:34:29;11.97;;;2.33;;
7029;SDS011;3556;53.500;10.176;2023-02-03T08:36:58;9.07;;;1.97;;
7029;SDS011;3556;53.500;10.176;2023-02-03T08:39:23;15.10;;;2.03;;
7029;SDS011;3556;53.500;10.176;2023-02-03T08:41:49;11.93;;;2.10;;
7029;SDS011;3556;53.500;10.176;2023-02-03T08:44:14;12.17;;;2.77;;
7029;SDS011;3556;53.500;10.176;2023-02-03T08:46:42;13.93;;;2.50;;
7029;SDS011;3556;53.500;10.176;2023-02-03T08:49:08;15.17;;;2.77;;
7029;SDS011;3556;53.500;10.176;2023-02-03T08:51:34;16.70;;;3.33;;
7029;SDS011;3556;53.500;10.176;2023-02-03T08:54:00;19.63;;;3.43;;
7029;SDS011;3556;53.500;10.176;2023-02-03T08:56:26;19.43;;;3.80;;
7029;SDS011;3556;53.500;10.176;2023-02-03T08:58:52;23.10;;;3.70;;
7029;SDS011;3556;53.500;10.176;2023-02-03T09:01:18;24.60;;;3.43;;
7029;SDS011;3556;53.500;10.176;2023-02-03T09:03:44;13.30;;;3.20;;
7029;SDS011;3556;53.500;10.176;2023-02-03T09:06:10;27.67;;;4.50;;
7029;SDS011;3556;53.500;10.176;2023-02-03T09:08:37;24.90;;;4.30;;
7029;SDS011;3556;53.500;10.176;2023-02-03T09:11:07;18.70;;;4.30;;
7029;SDS011;3556;53.500;10.176;2023-02-03T09:13:37;26.10;;;4.37;;
7029;SDS011;3556;53.500;10.176;2023-02-03T09:16:07;24.70;;;4.40;;
7029;SDS011;3556;53.500;10.176;2023-02-03T09:18:33;17.80;;;3.70;;
7029;SDS011;3556;53.500;10.176;2023-02-03T09:20:59;24.13;;;3.57;;
7029;SDS011;3556;53.500;10.176;2023-02-03T09:23:26;55.17;;;5.97;;
7029;SDS011;3556;53.500;10.176;2023-02-03T09:25:51;31.80;;;5.37;;
7029;SDS011;3556;53.500;10.176;2023-02-03T09:28:17;39.07;;;4.23;;
7029;SDS011;3556;53.500;10.176;2023-02-03T09:30:43;33.47;;;4.50;;
7029;SDS011;3556;53.500;10.176;2023-02-03T09:33:08;39.43;;;5.03;;
7029;SDS011;3556;53.500;10.176;2023-02-03T09:35:34;33.10;;;5.50;;
7029;SDS011;3556;53.500;10.176;2023-02-03T09:38:00;33.70;;;5.27;;
7029;SDS011;3556;53.500;10.176;2023-02-03T09:40:26;26.13;;;5.50;;
7029;SDS011;3556;53.500;10.176;2023-02-03T09:45:29;36.50;;;5.13;;
7029;SDS011;3556;53.500;10.176;2023-02-03T09:47:57;42.13;;;5.87;;
7029;SDS011;3556;53.500;10.176;2023-02-03T09:50:30;44.73;;;6.57;;
7029;SDS011;3556;53.500;10.176;2023-02-03T09:52:58;42.70;;;6.53;;
7029;SDS011;3556;53.500;10.176;2023-02-03T09:55:36;37.67;;;3.97;;
7029;SDS011;3556;53.500;10.176;2023-02-03T10:00:43;36.77;;;5.43;;
7029;SDS011;3556;53.500;10.176;2023-02-03T10:20:09;42.93;;;6.90;;
7029;SDS011;3556;53.500;10.176;2023-02-03T10:22:46;59.90;;;7.60;;
7029;SDS011;3556;53.500;10.176;2023-02-03T10:25:20;41.97;;;6.50;;
7029;SDS011;3556;53.500;10.176;2023-02-03T10:27:52;56.13;;;8.07;;
7029;SDS011;3556;53.500;10.176;2023-02-03T10:33:08;55.77;;;8.50;;
7029;SDS011;3556;53.500;10.176;2023-02-03T10:35:49;52.20;;;7.10;;
7029;SDS011;3556;53.500;10.176;2023-02-03T10:41:17;40.10;;;5.30;;
7029;SDS011;3556;53.500;10.176;2023-02-03T10:43:45;40.50;;;5.37;;
7029;SDS011;3556;53.500;10.176;2023-02-03T10:46:11;42.70;;;6.77;;
7029;SDS011;3556;53.500;10.176;2023-02-03T10:48:37;45.80;;;6.27;;
7029;SDS011;3556;53.500;10.176;2023-02-03T10:51:03;48.80;;;7.23;;
7029;SDS011;3556;53.500;10.176;2023-02-03T10:53:36;44.50;;;7.23;;
7029;SDS011;3556;53.500;10.176;2023-02-03T10:56:06;52.60;;;6.63;;
7029;SDS011;3556;53.500;10.176;2023-02-03T10:58:36;44.00;;;6.17;;
7029;SDS011;3556;53.500;10.176;2023-02-03T11:01:13;52.10;;;6.50;;
7029;SDS011;3556;53.500;10.176;2023-02-03T11:03:41;42.23;;;5.90;;
7029;SDS011;3556;53.500;10.176;2023-02-03T11:06:19;39.23;;;5.20;;
7029;SDS011;3556;53.500;10.176;2023-02-03T11:08:45;40.07;;;5.70;;
7029;SDS011;3556;53.500;10.176;2023-02-03T11:11:23;47.13;;;6.10;;
7029;SDS011;3556;53.500;10.176;2023-02-03T11:16:26;61.37;;;7.07;;
7029;SDS011;3556;53.500;10.176;2023-02-03T11:18:54;56.20;;;7.17;;
7029;SDS011;3556;53.500;10.176;2023-02-03T11:21:22;53.90;;;8.33;;
7029;SDS011;3556;53.500;10.176;2023-02-03T11:24:03;57.60;;;8.17;;
7029;SDS011;3556;53.500;10.176;2023-02-03T11:26:42;54.03;;;8.53;;
7029;SDS011;3556;53.500;10.176;2023-02-03T11:29:31;46.27;;;6.53;;
7029;SDS011;3556;53.500;10.176;2023-02-03T11:32:04;51.57;;;6.73;;
7029;SDS011;3556;53.500;10.176;2023-02-03T11:34:39;44.43;;;6.57;;
7029;SDS011;3556;53.500;10.176;2023-02-03T11:37:32;47.60;;;5.73;;
7029;SDS011;3556;53.500;10.176;2023-02-03T11:42:37;27.63;;;4.33;;
7029;SDS011;3556;53.500;10.176;2023-02-03T11:45:24;30.40;;;5.40;;
7029;SDS011;3556;53.500;10.176;2023-02-03T11:47:56;37.87;;;5.47;;
7029;SDS011;3556;53.500;10.176;2023-02-03T12:01:28;44.10;;;5.00;;
7029;SDS011;3556;53.500;10.176;2023-02-03T12:18:39;55.90;;;7.20;;
7029;SDS011;3556;53.500;10.176;2023-02-03T12:29:47;38.53;;;4.87;;
7029;SDS011;3556;53.500;10.176;2023-02-03T12:35:09;28.93;;;4.40;;
7029;SDS011;3556;53.500;10.176;2023-02-03T12:37:54;45.33;;;5.67;;
7029;SDS011;3556;53.500;10.176;2023-02-03T12:40:22;27.77;;;5.37;;
7029;SDS011;3556;53.500;10.176;2023-02-03T12:43:12;37.53;;;5.73;;
7029;SDS011;3556;53.500;10.176;2023-02-03T12:45:44;36.60;;;4.63;;
7029;SDS011;3556;53.500;10.176;2023-02-03T12:48:22;33.40;;;5.60;;
7029;SDS011;3556;53.500;10.176;2023-02-03T12:50:55;46.97;;;5.90;;
7029;SDS011;3556;53.500;10.176;2023-02-03T12:53:26;45.97;;;4.70;;
7029;SDS011;3556;53.500;10.176;2023-02-03T12:55:59;49.87;;;6.33;;
7029;SDS011;3556;53.500;10.176;2023-02-03T13:01:08;33.23;;;5.23;;
7029;SDS011;3556;53.500;10.176;2023-02-03T13:03:44;40.07;;;5.63;;
7029;SDS011;3556;53.500;10.176;2023-02-03T13:11:56;35.70;;;6.20;;
7029;SDS011;3556;53.500;10.176;2023-02-03T13:14:27;51.10;;;6.27;;
7029;SDS011;3556;53.500;10.176;2023-02-03T13:17:17;51.30;;;12.20;;
7029;SDS011;3556;53.500;10.176;2023-02-03T13:19:52;45.63;;;9.53;;
7029;SDS011;3556;53.500;10.176;2023-02-03T13:22:21;51.93;;;14.17;;
7029;SDS011;3556;53.500;10.176;2023-02-03T13:30:43;55.97;;;12.10;;
7029;SDS011;3556;53.500;10.176;2023-02-03T13:33:27;47.20;;;7.57;;
7029;SDS011;3556;53.500;10.176;2023-02-03T13:41:41;37.57;;;5.80;;
7029;SDS011;3556;53.500;10.176;2023-02-03T13:44:19;39.37;;;5.77;;
7029;SDS011;3556;53.500;10.176;2023-02-03T13:46:50;43.87;;;5.33;;
7029;SDS011;3556;53.500;10.176;2023-02-03T13:49:24;36.33;;;4.80;;
7029;SDS011;3556;53.500;10.176;2023-02-03T13:51:54;40.83;;;5.63;;
7029;SDS011;3556;53.500;10.176;2023-02-03T13:54:41;40.20;;;5.30;;
7029;SDS011;3556;53.500;10.176;2023-02-03T13:57:28;28.50;;;4.40;;
7029;SDS011;3556;53.500;10.176;2023-02-03T14:00:03;43.47;;;5.60;;
7029;SDS011;3556;53.500;10.176;2023-02-03T14:02:53;43.00;;;5.13;;
7029;SDS011;3556;53.500;10.176;2023-02-03T14:16:41;45.67;;;5.60;;
7029;SDS011;3556;53.500;10.176;2023-02-03T14:21:53;36.00;;;5.40;;
7029;SDS011;3556;53.500;10.176;2023-02-03T14:24:32;35.60;;;5.70;;
7029;SDS011;3556;53.500;10.176;2023-02-03T14:27:44;39.03;;;5.60;;
7029;SDS011;3556;53.500;10.176;2023-02-03T14:30:07;43.43;;;4.87;;
7029;SDS011;3556;53.500;10.176;2023-02-03T14:32:47;34.20;;;4.97;;
7029;SDS011;3556;53.500;10.176;2023-02-03T14:35:14;19.23;;;3.67;;
7029;SDS011;3556;53.500;10.176;2023-02-03T14:37:50;35.97;;;6.47;;
7029;SDS011;3556;53.500;10.176;2023-02-03T14:40:22;55.50;;;9.00;;
7029;SDS011;3556;53.500;10.176;2023-02-03T14:45:52;59.60;;;14.53;;
7029;SDS011;3556;53.500;10.176;2023-02-03T14:48:49;37.87;;;6.57;;
7029;SDS011;3556;53.500;10.176;2023-02-03T14:54:15;52.50;;;13.67;;
7029;SDS011;3556;53.500;10.176;2023-02-03T14:59:43;41.03;;;6.90;;
7029;SDS011;3556;53.500;10.176;2023-02-03T15:02:14;44.80;;;6.10;;
7029;SDS011;3556;53.500;10.176;2023-02-03T15:04:43;33.53;;;4.90;;
7029;SDS011;3556;53.500;10.176;2023-02-03T15:07:32;35.77;;;6.03;;
7029;SDS011;3556;53.500;10.176;2023-02-03T15:09:59;26.67;;;5.27;;
7029;SDS011;3556;53.500;10.176;2023-02-03T15:12:25;27.80;;;4.57;;
7029;SDS011;3556;53.500;10.176;2023-02-03T15:15:11;43.87;;;5.70;;
7029;SDS011;3556;53.500;10.176;2023-02-03T15:17:44;44.83;;;5.80;;
7029;SDS011;3556;53.500;10.176;2023-02-03T15:23:20;31.93;;;5.27;;
7029;SDS011;3556;53.500;10.176;2023-02-03T15:28:21;70.50;;;14.40;;
7029;SDS011;3556;53.500;10.176;2023-02-03T15:30:49;41.93;;;7.60;;
7029;SDS011;3556;53.500;10.176;2023-02-03T15:33:29;41.90;;;5.77;;
7029;SDS011;3556;53.500;10.176;2023-02-03T15:36:00;45.20;;;5.83;;
7029;SDS011;3556;53.500;10.176;2023-02-03T15:38:37;34.20;;;5.10;;
7029;SDS011;3556;53.500;10.176;2023-02-03T15:41:11;36.23;;;5.80;;
7029;SDS011;3556;53.500;10.176;2023-02-03T15:43:43;37.23;;;4.33;;
7029;SDS011;3556;53.500;10.176;2023-02-03T15:46:17;46.77;;;6.80;;
7029;SDS011;3556;53.500;10.176;2023-02-03T15:49:03;50.80;;;5.87;;
7029;SDS011;3556;53.500;10.176;2023-02-03T15:51:56;31.80;;;4.63;;
7029;SDS011;3556;53.500;10.176;2023-02-03T15:54:29;41.17;;;5.20;;
7029;SDS011;3556;53.500;10.176;2023-02-03T15:57:24;30.90;;;5.27;;
7029;SDS011;3556;53.500;10.176;2023-02-03T15:59:55;33.97;;;5.63;;
7029;SDS011;3556;53.500;10.176;2023-02-03T16:02:27;48.47;;;6.10;;
7029;SDS011;3556;53.500;10.176;2023-02-03T16:04:55;41.30;;;4.83;;
7029;SDS011;3556;53.500;10.176;2023-02-03T16:07:30;43.73;;;5.83;;
7029;SDS011;3556;53.500;10.176;2023-02-03T16:09:56;42.83;;;5.13;;
7029;SDS011;3556;53.500;10.176;2023-02-03T16:12:30;23.23;;;5.20;;
7029;SDS011;3556;53.500;10.176;2023-02-03T16:14:57;31.63;;;4.70;;
7029;SDS011;3556;53.500;10.176;2023-02-03T16:17:27;21.37;;;4.47;;
7029;SDS011;3556;53.500;10.176;2023-02-03T16:20:43;35.53;;;5.47;;
7029;SDS011;3556;53.500;10.176;2023-02-03T16:28:39;24.97;;;4.03;;
7029;SDS011;3556;53.500;10.176;2023-02-03T16:31:23;35.43;;;4.37;;
7029;SDS011;3556;53.500;10.176;2023-02-03T16:34:15;34.67;;;4.93;;
7029;SDS011;3556;53.500;10.176;2023-02-03T16:37:01;35.30;;;5.53;;
7029;SDS011;3556;53.500;10.176;2023-02-03T16:39:55;42.77;;;7.63;;
7029;SDS011;3556;53.500;10.176;2023-02-03T16:42:39;38.03;;;6.20;;
7029;SDS011;3556;53.500;10.176;2023-02-03T16:45:24;39.17;;;8.30;;
7029;SDS011;3556;53.500;10.176;2023-02-03T16:48:11;77.97;;;17.00;;
7029;SDS011;3556;53.500;10.176;2023-02-03T16:50:56;48.13;;;9.13;;
7029;SDS011;3556;53.500;10.176;2023-02-03T16:53:29;38.80;;;6.07;;
7029;SDS011;3556;53.500;10.176;2023-02-03T16:56:00;47.60;;;6.03;;
7029;SDS011;3556;53.500;10.176;2023-02-03T16:58:28;48.83;;;9.80;;
7029;SDS011;3556;53.500;10.176;2023-02-03T17:00:54;42.07;;;13.53;;
7029;SDS011;3556;53.500;10.176;2023-02-03T17:03:22;40.03;;;11.33;;
7029;SDS011;3556;53.500;10.176;2023-02-03T17:05:51;34.97;;;6.50;;
7029;SDS011;3556;53.500;10.176;2023-02-03T17:08:19;29.67;;;5.03;;
7029;SDS011;3556;53.500;10.176;2023-02-03T17:10:46;48.73;;;6.77;;
7029;SDS011;3556;53.500;10.176;2023-02-03T17:13:13;37.23;;;6.00;;
7029;SDS011;3556;53.500;10.176;2023-02-03T17:15:44;35.47;;;5.53;;
7029;SDS011;3556;53.500;10.176;2023-02-03T17:18:12;47.47;;;5.87;;
7029;SDS011;3556;53.500;10.176;2023-02-03T17:20:41;42.33;;;5.43;;
7029;SDS011;3556;53.500;10.176;2023-02-03T17:23:08;43.67;;;7.10;;
7029;SDS011;3556;53.500;10.176;2023-02-03T17:25:34;63.57;;;7.27;;
7029;SDS011;3556;53.500;10.176;2023-02-03T17:28:01;49.40;;;6.13;;
7029;SDS011;3556;53.500;10.176;2023-02-03T17:30:27;36.00;;;6.37;;
7029;SDS011;3556;53.500;10.176;2023-02-03T17:32:53;44.87;;;6.00;;
7029;SDS011;3556;53.500;10.176;2023-02-03T17:35:19;45.50;;;6.83;;
7029;SDS011;3556;53.500;10.176;2023-02-03T17:37:44;52.90;;;6.60;;